CA34 weather

Flea Port Heliport
San Jose, California, United States

Public forecast

Using degrees Fahrenheit for public forecast. Weather courtesy of forecast.io.

Closest aviation weather report (METAR) to Flea Port Heliport

Closest report is Norman Y. Mineta San Jose International Airport, 2.4 nm (4.5 km) WSW. Retrieved 2019/10/16 17:53 UTC (28 minutes ago):

KSJC 161753Z 01006KT 8SM FEW001 BKN100 BKN160 17/12 A3003 RMK AO2 SLP168 T01670117 10172 20100 51003

Closest aviation forecast (TAF) to Flea Port Heliport

Closest forecast is Norman Y. Mineta San Jose International Airport, 2.4 nm (4.5 km) WSW. Retrieved 2019/10/16 18:30 UTC (0 seconds ago):

TAF KSJC 161728Z 1618/1718 VRB03KT P6SM FEW010 BKN200 FM161900 32009KT P6SM BKN200 FM170400 23005KT P6SM FEW040 BKN200 FM170800 15006KT P6SM VCSH SCT025 BKN050 FM171300 VRB06KT P6SM SCT025 BKN050 TEMPO 1713/1716 BKN025